sensor_id;sensor_type;location;lat;lon;timestamp;P1;durP1;ratioP1;P2;durP2;ratioP2
19854;SDS011;10088;47.946;2.532;2024-02-16T00:00:39;2.37;;;1.47;;
19854;SDS011;10088;47.946;2.532;2024-02-16T00:03:04;1.97;;;1.53;;
19854;SDS011;10088;47.946;2.532;2024-02-16T00:05:29;2.90;;;1.67;;
19854;SDS011;10088;47.946;2.532;2024-02-16T00:07:55;3.00;;;1.43;;
19854;SDS011;10088;47.946;2.532;2024-02-16T00:10:20;3.37;;;1.30;;
19854;SDS011;10088;47.946;2.532;2024-02-16T00:12:46;2.30;;;1.50;;
19854;SDS011;10088;47.946;2.532;2024-02-16T00:15:12;3.53;;;1.70;;
19854;SDS011;10088;47.946;2.532;2024-02-16T00:17:37;3.23;;;1.50;;
19854;SDS011;10088;47.946;2.532;2024-02-16T00:20:03;4.27;;;1.87;;
19854;SDS011;10088;47.946;2.532;2024-02-16T00:22:28;3.50;;;1.20;;
19854;SDS011;10088;47.946;2.532;2024-02-16T00:24:53;2.90;;;1.30;;
19854;SDS011;10088;47.946;2.532;2024-02-16T00:27:19;1.73;;;1.17;;
19854;SDS011;10088;47.946;2.532;2024-02-16T00:29:44;1.57;;;1.27;;
19854;SDS011;10088;47.946;2.532;2024-02-16T00:32:11;2.13;;;1.20;;
19854;SDS011;10088;47.946;2.532;2024-02-16T00:34:37;5.97;;;1.40;;
19854;SDS011;10088;47.946;2.532;2024-02-16T00:37:04;2.20;;;1.93;;
19854;SDS011;10088;47.946;2.532;2024-02-16T00:39:33;2.87;;;1.43;;
19854;SDS011;10088;47.946;2.532;2024-02-16T00:41:58;3.30;;;1.10;;
19854;SDS011;10088;47.946;2.532;2024-02-16T00:44:23;1.23;;;0.93;;
19854;SDS011;10088;47.946;2.532;2024-02-16T00:46:49;1.63;;;1.30;;
19854;SDS011;10088;47.946;2.532;2024-02-16T00:49:14;4.80;;;1.60;;
19854;SDS011;10088;47.946;2.532;2024-02-16T00:51:40;4.37;;;1.70;;
19854;SDS011;10088;47.946;2.532;2024-02-16T00:54:05;4.10;;;1.60;;
19854;SDS011;10088;47.946;2.532;2024-02-16T00:56:31;2.40;;;1.57;;
19854;SDS011;10088;47.946;2.532;2024-02-16T00:58:57;4.13;;;1.40;;
19854;SDS011;10088;47.946;2.532;2024-02-16T01:01:22;3.67;;;2.07;;
19854;SDS011;10088;47.946;2.532;2024-02-16T01:03:50;3.70;;;1.60;;
19854;SDS011;10088;47.946;2.532;2024-02-16T01:06:17;4.13;;;1.70;;
19854;SDS011;10088;47.946;2.532;2024-02-16T01:08:42;4.47;;;1.57;;
19854;SDS011;10088;47.946;2.532;2024-02-16T01:11:07;4.00;;;1.50;;
19854;SDS011;10088;47.946;2.532;2024-02-16T01:13:33;3.63;;;2.33;;
19854;SDS011;10088;47.946;2.532;2024-02-16T01:15:58;4.67;;;1.60;;
19854;SDS011;10088;47.946;2.532;2024-02-16T01:18:24;3.70;;;1.63;;
19854;SDS011;10088;47.946;2.532;2024-02-16T01:20:50;3.17;;;1.80;;
19854;SDS011;10088;47.946;2.532;2024-02-16T01:23:16;1.93;;;1.70;;
19854;SDS011;10088;47.946;2.532;2024-02-16T01:25:41;3.50;;;1.80;;
19854;SDS011;10088;47.946;2.532;2024-02-16T01:28:07;2.73;;;1.43;;
19854;SDS011;10088;47.946;2.532;2024-02-16T01:30:32;5.07;;;1.50;;
19854;SDS011;10088;47.946;2.532;2024-02-16T01:32:57;3.33;;;1.93;;
19854;SDS011;10088;47.946;2.532;2024-02-16T01:35:23;4.40;;;1.53;;
19854;SDS011;10088;47.946;2.532;2024-02-16T01:37:48;3.70;;;1.60;;
19854;SDS011;10088;47.946;2.532;2024-02-16T01:40:14;4.27;;;1.87;;
19854;SDS011;10088;47.946;2.532;2024-02-16T01:42:42;5.80;;;1.70;;
19854;SDS011;10088;47.946;2.532;2024-02-16T01:45:07;2.80;;;1.50;;
19854;SDS011;10088;47.946;2.532;2024-02-16T01:47:34;2.23;;;1.40;;
19854;SDS011;10088;47.946;2.532;2024-02-16T01:49:59;2.77;;;1.47;;
19854;SDS011;10088;47.946;2.532;2024-02-16T01:52:25;3.40;;;1.43;;
19854;SDS011;10088;47.946;2.532;2024-02-16T01:54:50;4.40;;;1.50;;
19854;SDS011;10088;47.946;2.532;2024-02-16T01:57:15;3.43;;;1.53;;
19854;SDS011;10088;47.946;2.532;2024-02-16T01:59:41;2.00;;;1.30;;
19854;SDS011;10088;47.946;2.532;2024-02-16T02:02:06;2.70;;;1.23;;
19854;SDS011;10088;47.946;2.532;2024-02-16T02:04:32;2.93;;;1.40;;
19854;SDS011;10088;47.946;2.532;2024-02-16T02:06:57;1.80;;;1.30;;
19854;SDS011;10088;47.946;2.532;2024-02-16T02:09:22;3.80;;;1.50;;
19854;SDS011;10088;47.946;2.532;2024-02-16T02:11:47;7.27;;;2.10;;
19854;SDS011;10088;47.946;2.532;2024-02-16T02:14:13;6.30;;;1.53;;
19854;SDS011;10088;47.946;2.532;2024-02-16T02:16:39;1.50;;;1.30;;
19854;SDS011;10088;47.946;2.532;2024-02-16T02:19:04;1.27;;;1.07;;
19854;SDS011;10088;47.946;2.532;2024-02-16T02:21:30;2.13;;;1.27;;
19854;SDS011;10088;47.946;2.532;2024-02-16T02:23:55;4.37;;;1.47;;
19854;SDS011;10088;47.946;2.532;2024-02-16T02:26:21;5.13;;;1.57;;
19854;SDS011;10088;47.946;2.532;2024-02-16T02:28:46;6.67;;;2.07;;
19854;SDS011;10088;47.946;2.532;2024-02-16T02:31:11;1.93;;;1.27;;
19854;SDS011;10088;47.946;2.532;2024-02-16T02:33:36;3.63;;;1.30;;
19854;SDS011;10088;47.946;2.532;2024-02-16T02:36:02;4.00;;;1.20;;
19854;SDS011;10088;47.946;2.532;2024-02-16T02:38:30;1.57;;;1.00;;
19854;SDS011;10088;47.946;2.532;2024-02-16T02:40:55;1.20;;;0.93;;
19854;SDS011;10088;47.946;2.532;2024-02-16T02:43:20;2.13;;;1.03;;
19854;SDS011;10088;47.946;2.532;2024-02-16T02:45:47;2.40;;;1.53;;
19854;SDS011;10088;47.946;2.532;2024-02-16T02:48:12;8.63;;;1.53;;
19854;SDS011;10088;47.946;2.532;2024-02-16T02:50:37;3.50;;;1.33;;
19854;SDS011;10088;47.946;2.532;2024-02-16T02:53:03;2.53;;;1.27;;
19854;SDS011;10088;47.946;2.532;2024-02-16T02:55:28;2.57;;;1.50;;
19854;SDS011;10088;47.946;2.532;2024-02-16T02:57:53;6.07;;;1.33;;
19854;SDS011;10088;47.946;2.532;2024-02-16T03:00:19;2.23;;;1.30;;
19854;SDS011;10088;47.946;2.532;2024-02-16T03:02:44;4.07;;;1.73;;
19854;SDS011;10088;47.946;2.532;2024-02-16T03:05:09;3.63;;;1.33;;
19854;SDS011;10088;47.946;2.532;2024-02-16T03:07:35;4.40;;;2.20;;
19854;SDS011;10088;47.946;2.532;2024-02-16T03:10:00;3.53;;;1.40;;
19854;SDS011;10088;47.946;2.532;2024-02-16T03:12:25;3.33;;;1.37;;
19854;SDS011;10088;47.946;2.532;2024-02-16T03:14:51;2.57;;;1.40;;
19854;SDS011;10088;47.946;2.532;2024-02-16T03:17:16;4.70;;;1.50;;
19854;SDS011;10088;47.946;2.532;2024-02-16T03:19:41;2.93;;;1.23;;
19854;SDS011;10088;47.946;2.532;2024-02-16T03:22:07;3.00;;;1.40;;
19854;SDS011;10088;47.946;2.532;2024-02-16T03:24:32;4.70;;;2.37;;
19854;SDS011;10088;47.946;2.532;2024-02-16T03:26:57;2.87;;;1.10;;
19854;SDS011;10088;47.946;2.532;2024-02-16T03:29:23;3.47;;;1.60;;
19854;SDS011;10088;47.946;2.532;2024-02-16T03:31:49;5.47;;;1.30;;
19854;SDS011;10088;47.946;2.532;2024-02-16T03:34:15;3.00;;;1.13;;
19854;SDS011;10088;47.946;2.532;2024-02-16T03:36:40;7.17;;;2.00;;
19854;SDS011;10088;47.946;2.532;2024-02-16T03:39:05;3.60;;;1.47;;
19854;SDS011;10088;47.946;2.532;2024-02-16T03:41:33;4.30;;;1.60;;
19854;SDS011;10088;47.946;2.532;2024-02-16T03:43:59;7.93;;;1.63;;
19854;SDS011;10088;47.946;2.532;2024-02-16T03:46:25;4.03;;;2.27;;
19854;SDS011;10088;47.946;2.532;2024-02-16T03:48:50;5.07;;;1.97;;
19854;SDS011;10088;47.946;2.532;2024-02-16T03:51:15;3.70;;;1.80;;
19854;SDS011;10088;47.946;2.532;2024-02-16T03:53:41;3.60;;;1.37;;
19854;SDS011;10088;47.946;2.532;2024-02-16T03:56:06;5.87;;;2.30;;
19854;SDS011;10088;47.946;2.532;2024-02-16T03:58:32;3.70;;;1.40;;
19854;SDS011;10088;47.946;2.532;2024-02-16T04:00:57;4.73;;;1.67;;
19854;SDS011;10088;47.946;2.532;2024-02-16T04:03:23;2.83;;;1.50;;
19854;SDS011;10088;47.946;2.532;2024-02-16T04:05:48;2.53;;;1.80;;
19854;SDS011;10088;47.946;2.532;2024-02-16T04:08:14;4.83;;;1.60;;
19854;SDS011;10088;47.946;2.532;2024-02-16T04:10:39;5.07;;;1.57;;
19854;SDS011;10088;47.946;2.532;2024-02-16T04:13:05;4.17;;;1.37;;
19854;SDS011;10088;47.946;2.532;2024-02-16T04:15:30;3.17;;;1.17;;
19854;SDS011;10088;47.946;2.532;2024-02-16T04:17:56;5.97;;;3.73;;
19854;SDS011;10088;47.946;2.532;2024-02-16T04:20:21;3.10;;;1.60;;
19854;SDS011;10088;47.946;2.532;2024-02-16T04:22:47;2.00;;;1.20;;
19854;SDS011;10088;47.946;2.532;2024-02-16T04:25:12;4.30;;;1.60;;
19854;SDS011;10088;47.946;2.532;2024-02-16T04:27:37;5.67;;;1.50;;
19854;SDS011;10088;47.946;2.532;2024-02-16T04:30:03;3.67;;;1.37;;
19854;SDS011;10088;47.946;2.532;2024-02-16T04:32:29;3.60;;;1.30;;
19854;SDS011;10088;47.946;2.532;2024-02-16T04:34:54;1.00;;;0.90;;
19854;SDS011;10088;47.946;2.532;2024-02-16T04:37:23;8.63;;;2.00;;
19854;SDS011;10088;47.946;2.532;2024-02-16T04:39:48;5.23;;;1.43;;
19854;SDS011;10088;47.946;2.532;2024-02-16T04:42:14;3.73;;;1.50;;
19854;SDS011;10088;47.946;2.532;2024-02-16T04:44:39;3.03;;;1.30;;
19854;SDS011;10088;47.946;2.532;2024-02-16T04:47:04;5.27;;;1.20;;
19854;SDS011;10088;47.946;2.532;2024-02-16T04:49:30;6.43;;;1.93;;
19854;SDS011;10088;47.946;2.532;2024-02-16T04:51:55;5.37;;;1.57;;
19854;SDS011;10088;47.946;2.532;2024-02-16T04:54:21;2.80;;;1.37;;
19854;SDS011;10088;47.946;2.532;2024-02-16T04:56:46;5.30;;;1.63;;
19854;SDS011;10088;47.946;2.532;2024-02-16T04:59:11;4.03;;;2.23;;
19854;SDS011;10088;47.946;2.532;2024-02-16T05:01:36;4.00;;;1.37;;
19854;SDS011;10088;47.946;2.532;2024-02-16T05:04:02;3.33;;;0.90;;
19854;SDS011;10088;47.946;2.532;2024-02-16T05:06:27;3.10;;;1.17;;
19854;SDS011;10088;47.946;2.532;2024-02-16T05:08:52;2.33;;;1.17;;
19854;SDS011;10088;47.946;2.532;2024-02-16T05:11:18;2.07;;;1.20;;
19854;SDS011;10088;47.946;2.532;2024-02-16T05:13:44;3.63;;;1.03;;
19854;SDS011;10088;47.946;2.532;2024-02-16T05:16:09;2.60;;;1.50;;
19854;SDS011;10088;47.946;2.532;2024-02-16T05:18:36;7.70;;;2.33;;
19854;SDS011;10088;47.946;2.532;2024-02-16T05:21:01;6.00;;;1.73;;
19854;SDS011;10088;47.946;2.532;2024-02-16T05:23:26;3.97;;;1.43;;
19854;SDS011;10088;47.946;2.532;2024-02-16T05:25:52;1.90;;;0.90;;
19854;SDS011;10088;47.946;2.532;2024-02-16T05:28:19;2.63;;;1.27;;
19854;SDS011;10088;47.946;2.532;2024-02-16T05:30:44;4.47;;;1.47;;
19854;SDS011;10088;47.946;2.532;2024-02-16T05:33:10;5.47;;;1.03;;
19854;SDS011;10088;47.946;2.532;2024-02-16T05:35:35;1.97;;;1.03;;
19854;SDS011;10088;47.946;2.532;2024-02-16T05:38:04;2.90;;;1.70;;
19854;SDS011;10088;47.946;2.532;2024-02-16T05:40:35;3.77;;;1.20;;
19854;SDS011;10088;47.946;2.532;2024-02-16T05:43:10;2.50;;;1.10;;
19854;SDS011;10088;47.946;2.532;2024-02-16T05:45:35;3.73;;;1.43;;
19854;SDS011;10088;47.946;2.532;2024-02-16T05:48:01;5.00;;;2.37;;
19854;SDS011;10088;47.946;2.532;2024-02-16T05:50:26;3.43;;;1.90;;
19854;SDS011;10088;47.946;2.532;2024-02-16T05:52:51;4.97;;;2.10;;
19854;SDS011;10088;47.946;2.532;2024-02-16T05:55:17;6.47;;;4.33;;
19854;SDS011;10088;47.946;2.532;2024-02-16T05:57:44;5.47;;;1.90;;
19854;SDS011;10088;47.946;2.532;2024-02-16T06:00:09;7.57;;;4.27;;
19854;SDS011;10088;47.946;2.532;2024-02-16T06:02:35;8.20;;;4.40;;
19854;SDS011;10088;47.946;2.532;2024-02-16T06:05:01;5.77;;;2.67;;
19854;SDS011;10088;47.946;2.532;2024-02-16T06:07:27;12.13;;;6.07;;
19854;SDS011;10088;47.946;2.532;2024-02-16T06:09:54;5.53;;;3.17;;
19854;SDS011;10088;47.946;2.532;2024-02-16T06:12:19;7.20;;;4.00;;
19854;SDS011;10088;47.946;2.532;2024-02-16T06:14:45;2.10;;;1.57;;
19854;SDS011;10088;47.946;2.532;2024-02-16T06:17:10;17.60;;;7.53;;
19854;SDS011;10088;47.946;2.532;2024-02-16T06:19:36;7.50;;;4.07;;
19854;SDS011;10088;47.946;2.532;2024-02-16T06:22:02;16.60;;;8.93;;
19854;SDS011;10088;47.946;2.532;2024-02-16T06:24:27;6.10;;;4.10;;
19854;SDS011;10088;47.946;2.532;2024-02-16T06:26:52;7.37;;;4.40;;
19854;SDS011;10088;47.946;2.532;2024-02-16T06:29:18;7.93;;;3.73;;
19854;SDS011;10088;47.946;2.532;2024-02-16T06:31:46;17.63;;;7.53;;
19854;SDS011;10088;47.946;2.532;2024-02-16T06:34:13;6.50;;;2.83;;
19854;SDS011;10088;47.946;2.532;2024-02-16T06:36:38;5.90;;;3.60;;
19854;SDS011;10088;47.946;2.532;2024-02-16T06:39:03;4.17;;;1.77;;
19854;SDS011;10088;47.946;2.532;2024-02-16T06:41:28;1.97;;;1.03;;
19854;SDS011;10088;47.946;2.532;2024-02-16T06:43:54;3.80;;;1.77;;
19854;SDS011;10088;47.946;2.532;2024-02-16T06:46:19;5.90;;;1.50;;
19854;SDS011;10088;47.946;2.532;2024-02-16T06:48:44;7.27;;;1.70;;
19854;SDS011;10088;47.946;2.532;2024-02-16T06:51:10;5.93;;;1.50;;
19854;SDS011;10088;47.946;2.532;2024-02-16T06:53:35;4.80;;;2.27;;
19854;SDS011;10088;47.946;2.532;2024-02-16T06:56:00;3.70;;;2.03;;
19854;SDS011;10088;47.946;2.532;2024-02-16T06:58:26;6.07;;;2.13;;
19854;SDS011;10088;47.946;2.532;2024-02-16T07:00:51;3.30;;;1.83;;
19854;SDS011;10088;47.946;2.532;2024-02-16T07:03:16;3.00;;;1.90;;
19854;SDS011;10088;47.946;2.532;2024-02-16T07:05:42;5.30;;;2.33;;
19854;SDS011;10088;47.946;2.532;2024-02-16T07:08:07;3.90;;;2.80;;
19854;SDS011;10088;47.946;2.532;2024-02-16T07:10:32;8.37;;;3.17;;
19854;SDS011;10088;47.946;2.532;2024-02-16T07:12:58;6.90;;;3.10;;
19854;SDS011;10088;47.946;2.532;2024-02-16T07:15:23;7.60;;;3.63;;
19854;SDS011;10088;47.946;2.532;2024-02-16T07:17:49;5.03;;;2.23;;
19854;SDS011;10088;47.946;2.532;2024-02-16T07:20:14;4.93;;;2.50;;
19854;SDS011;10088;47.946;2.532;2024-02-16T07:22:40;4.13;;;2.13;;
19854;SDS011;10088;47.946;2.532;2024-02-16T07:25:07;4.23;;;2.00;;
19854;SDS011;10088;47.946;2.532;2024-02-16T07:27:33;3.60;;;1.63;;
19854;SDS011;10088;47.946;2.532;2024-02-16T07:29:58;3.83;;;2.10;;
19854;SDS011;10088;47.946;2.532;2024-02-16T07:32:23;2.90;;;1.87;;
19854;SDS011;10088;47.946;2.532;2024-02-16T07:34:49;5.73;;;2.10;;
19854;SDS011;10088;47.946;2.532;2024-02-16T07:37:14;3.10;;;2.30;;
19854;SDS011;10088;47.946;2.532;2024-02-16T07:39:41;2.70;;;1.23;;
19854;SDS011;10088;47.946;2.532;2024-02-16T07:42:06;6.80;;;1.70;;
19854;SDS011;10088;47.946;2.532;2024-02-16T07:44:34;6.23;;;2.10;;
19854;SDS011;10088;47.946;2.532;2024-02-16T07:46:59;3.73;;;1.60;;
19854;SDS011;10088;47.946;2.532;2024-02-16T07:49:25;4.87;;;1.53;;
19854;SDS011;10088;47.946;2.532;2024-02-16T07:51:50;4.50;;;1.73;;
19854;SDS011;10088;47.946;2.532;2024-02-16T07:54:15;6.40;;;1.60;;
19854;SDS011;10088;47.946;2.532;2024-02-16T07:56:41;8.13;;;2.20;;
19854;SDS011;10088;47.946;2.532;2024-02-16T07:59:06;2.23;;;1.60;;
19854;SDS011;10088;47.946;2.532;2024-02-16T08:01:32;6.53;;;1.83;;
19854;SDS011;10088;47.946;2.532;2024-02-16T08:03:57;2.33;;;1.60;;
19854;SDS011;10088;47.946;2.532;2024-02-16T08:06:26;3.63;;;1.80;;
19854;SDS011;10088;47.946;2.532;2024-02-16T08:08:52;3.90;;;1.90;;
19854;SDS011;10088;47.946;2.532;2024-02-16T08:11:17;2.57;;;1.37;;
19854;SDS011;10088;47.946;2.532;2024-02-16T08:13:43;3.70;;;2.00;;
19854;SDS011;10088;47.946;2.532;2024-02-16T08:16:08;1.90;;;1.50;;
19854;SDS011;10088;47.946;2.532;2024-02-16T08:18:33;2.87;;;1.60;;
19854;SDS011;10088;47.946;2.532;2024-02-16T08:20:59;3.73;;;2.10;;
19854;SDS011;10088;47.946;2.532;2024-02-16T08:23:25;2.73;;;1.70;;
19854;SDS011;10088;47.946;2.532;2024-02-16T08:25:50;2.63;;;1.83;;
19854;SDS011;10088;47.946;2.532;2024-02-16T08:28:15;3.87;;;2.20;;
19854;SDS011;10088;47.946;2.532;2024-02-16T08:30:40;5.77;;;2.10;;
19854;SDS011;10088;47.946;2.532;2024-02-16T08:33:09;4.03;;;2.00;;
19854;SDS011;10088;47.946;2.532;2024-02-16T08:35:34;4.07;;;1.93;;
19854;SDS011;10088;47.946;2.532;2024-02-16T08:37:59;3.67;;;1.97;;
19854;SDS011;10088;47.946;2.532;2024-02-16T08:40:24;2.67;;;2.03;;
19854;SDS011;10088;47.946;2.532;2024-02-16T08:42:50;7.80;;;2.97;;
19854;SDS011;10088;47.946;2.532;2024-02-16T08:45:15;3.03;;;2.50;;
19854;SDS011;10088;47.946;2.532;2024-02-16T08:47:42;2.83;;;2.53;;
19854;SDS011;10088;47.946;2.532;2024-02-16T08:50:08;3.83;;;2.60;;
19854;SDS011;10088;47.946;2.532;2024-02-16T08:52:33;5.23;;;2.57;;
19854;SDS011;10088;47.946;2.532;2024-02-16T08:54:59;3.33;;;2.03;;
19854;SDS011;10088;47.946;2.532;2024-02-16T08:57:24;6.60;;;2.33;;
19854;SDS011;10088;47.946;2.532;2024-02-16T08:59:49;3.87;;;1.90;;
19854;SDS011;10088;47.946;2.532;2024-02-16T09:02:14;4.47;;;2.17;;
19854;SDS011;10088;47.946;2.532;2024-02-16T09:04:40;3.77;;;2.13;;
19854;SDS011;10088;47.946;2.532;2024-02-16T09:07:05;3.13;;;2.30;;
19854;SDS011;10088;47.946;2.532;2024-02-16T09:09:30;4.47;;;1.83;;
19854;SDS011;10088;47.946;2.532;2024-02-16T09:11:56;2.97;;;2.40;;
19854;SDS011;10088;47.946;2.532;2024-02-16T09:14:21;4.00;;;2.30;;
19854;SDS011;10088;47.946;2.532;2024-02-16T09:16:49;4.63;;;1.93;;
19854;SDS011;10088;47.946;2.532;2024-02-16T09:19:18;4.07;;;2.23;;
19854;SDS011;10088;47.946;2.532;2024-02-16T09:21:44;2.97;;;2.47;;
19854;SDS011;10088;47.946;2.532;2024-02-16T09:24:09;7.20;;;3.20;;
19854;SDS011;10088;47.946;2.532;2024-02-16T09:26:39;4.37;;;2.03;;
19854;SDS011;10088;47.946;2.532;2024-02-16T09:29:04;3.50;;;2.50;;
19854;SDS011;10088;47.946;2.532;2024-02-16T09:31:29;5.23;;;2.43;;
19854;SDS011;10088;47.946;2.532;2024-02-16T09:33:55;2.20;;;2.00;;
19854;SDS011;10088;47.946;2.532;2024-02-16T09:36:20;5.27;;;2.37;;
19854;SDS011;10088;47.946;2.532;2024-02-16T09:38:45;4.60;;;2.10;;
19854;SDS011;10088;47.946;2.532;2024-02-16T09:41:11;3.70;;;2.30;;
19854;SDS011;10088;47.946;2.532;2024-02-16T09:43:37;2.90;;;2.53;;
19854;SDS011;10088;47.946;2.532;2024-02-16T09:46:04;4.40;;;1.83;;
19854;SDS011;10088;47.946;2.532;2024-02-16T09:48:30;5.10;;;2.00;;
19854;SDS011;10088;47.946;2.532;2024-02-16T09:50:56;4.20;;;1.93;;
19854;SDS011;10088;47.946;2.532;2024-02-16T09:53:23;1.90;;;1.47;;
19854;SDS011;10088;47.946;2.532;2024-02-16T09:55:49;5.80;;;1.80;;
19854;SDS011;10088;47.946;2.532;2024-02-16T09:58:15;2.57;;;1.53;;
19854;SDS011;10088;47.946;2.532;2024-02-16T10:00:49;4.27;;;1.30;;
19854;SDS011;10088;47.946;2.532;2024-02-16T10:03:22;2.57;;;1.47;;
19854;SDS011;10088;47.946;2.532;2024-02-16T10:05:47;2.17;;;1.07;;
19854;SDS011;10088;47.946;2.532;2024-02-16T10:08:12;1.53;;;1.20;;
19854;SDS011;10088;47.946;2.532;2024-02-16T10:10:38;1.83;;;1.10;;
19854;SDS011;10088;47.946;2.532;2024-02-16T10:13:06;2.30;;;1.23;;
19854;SDS011;10088;47.946;2.532;2024-02-16T10:15:33;1.57;;;0.93;;
19854;SDS011;10088;47.946;2.532;2024-02-16T10:20:28;3.33;;;1.27;;
19854;SDS011;10088;47.946;2.532;2024-02-16T10:23:06;1.90;;;1.17;;
19854;SDS011;10088;47.946;2.532;2024-02-16T10:25:31;2.20;;;0.87;;
19854;SDS011;10088;47.946;2.532;2024-02-16T10:27:57;1.67;;;0.73;;
19854;SDS011;10088;47.946;2.532;2024-02-16T10:30:23;0.80;;;0.70;;
19854;SDS011;10088;47.946;2.532;2024-02-16T10:32:49;3.10;;;0.83;;
19854;SDS011;10088;47.946;2.532;2024-02-16T10:35:14;2.07;;;0.63;;
19854;SDS011;10088;47.946;2.532;2024-02-16T10:37:41;3.67;;;0.97;;
19854;SDS011;10088;47.946;2.532;2024-02-16T10:40:06;3.67;;;0.97;;
19854;SDS011;10088;47.946;2.532;2024-02-16T10:42:34;4.53;;;1.00;;
19854;SDS011;10088;47.946;2.532;2024-02-16T10:45:00;2.47;;;1.30;;
19854;SDS011;10088;47.946;2.532;2024-02-16T10:47:25;1.37;;;0.90;;
19854;SDS011;10088;47.946;2.532;2024-02-16T10:49:50;5.43;;;1.03;;
19854;SDS011;10088;47.946;2.532;2024-02-16T10:52:16;2.00;;;0.87;;
19854;SDS011;10088;47.946;2.532;2024-02-16T10:54:42;1.87;;;1.00;;
19854;SDS011;10088;47.946;2.532;2024-02-16T10:57:08;2.10;;;0.73;;
19854;SDS011;10088;47.946;2.532;2024-02-16T10:59:43;2.23;;;0.97;;
19854;SDS011;10088;47.946;2.532;2024-02-16T11:02:09;1.27;;;0.87;;
19854;SDS011;10088;47.946;2.532;2024-02-16T11:04:38;0.70;;;0.70;;
19854;SDS011;10088;47.946;2.532;2024-02-16T11:07:10;2.60;;;0.97;;
19854;SDS011;10088;47.946;2.532;2024-02-16T11:09:36;1.10;;;0.60;;
19854;SDS011;10088;47.946;2.532;2024-02-16T11:12:02;0.70;;;0.47;;
19854;SDS011;10088;47.946;2.532;2024-02-16T11:14:49;1.60;;;0.77;;
19854;SDS011;10088;47.946;2.532;2024-02-16T11:17:21;0.73;;;0.60;;
19854;SDS011;10088;47.946;2.532;2024-02-16T11:19:47;1.07;;;0.60;;
19854;SDS011;10088;47.946;2.532;2024-02-16T11:22:16;4.03;;;0.80;;
19854;SDS011;10088;47.946;2.532;2024-02-16T11:24:43;1.60;;;0.77;;
19854;SDS011;10088;47.946;2.532;2024-02-16T11:27:10;0.43;;;0.40;;
19854;SDS011;10088;47.946;2.532;2024-02-16T11:29:35;1.63;;;0.73;;
19854;SDS011;10088;47.946;2.532;2024-02-16T11:32:04;0.73;;;0.60;;
19854;SDS011;10088;47.946;2.532;2024-02-16T11:34:30;0.90;;;0.40;;
19854;SDS011;10088;47.946;2.532;2024-02-16T11:36:56;1.43;;;0.60;;
19854;SDS011;10088;47.946;2.532;2024-02-16T11:39:22;0.40;;;0.40;;
19854;SDS011;10088;47.946;2.532;2024-02-16T11:41:47;0.93;;;0.40;;
19854;SDS011;10088;47.946;2.532;2024-02-16T11:44:13;1.47;;;0.50;;
19854;SDS011;10088;47.946;2.532;2024-02-16T11:46:38;2.27;;;0.63;;
19854;SDS011;10088;47.946;2.532;2024-02-16T11:49:04;1.90;;;0.97;;
19854;SDS011;10088;47.946;2.532;2024-02-16T11:51:30;2.30;;;0.97;;
19854;SDS011;10088;47.946;2.532;2024-02-16T11:53:55;1.23;;;0.57;;
19854;SDS011;10088;47.946;2.532;2024-02-16T11:56:22;1.27;;;0.70;;
19854;SDS011;10088;47.946;2.532;2024-02-16T11:58:49;1.20;;;0.77;;
19854;SDS011;10088;47.946;2.532;2024-02-16T12:01:14;1.90;;;0.60;;
19854;SDS011;10088;47.946;2.532;2024-02-16T12:03:40;1.53;;;0.63;;
19854;SDS011;10088;47.946;2.532;2024-02-16T12:06:06;1.63;;;0.70;;
19854;SDS011;10088;47.946;2.532;2024-02-16T12:08:32;1.80;;;0.60;;
19854;SDS011;10088;47.946;2.532;2024-02-16T12:10:58;1.00;;;0.60;;
19854;SDS011;10088;47.946;2.532;2024-02-16T12:13:23;1.53;;;0.53;;
19854;SDS011;10088;47.946;2.532;2024-02-16T12:15:49;2.60;;;0.70;;
19854;SDS011;10088;47.946;2.532;2024-02-16T12:18:21;0.77;;;0.57;;
19854;SDS011;10088;47.946;2.532;2024-02-16T12:23:31;1.23;;;0.47;;
19854;SDS011;10088;47.946;2.532;2024-02-16T12:25:56;0.80;;;0.40;;
19854;SDS011;10088;47.946;2.532;2024-02-16T12:28:24;0.30;;;0.30;;
19854;SDS011;10088;47.946;2.532;2024-02-16T12:30:49;0.30;;;0.30;;
19854;SDS011;10088;47.946;2.532;2024-02-16T12:33:14;0.40;;;0.40;;
19854;SDS011;10088;47.946;2.532;2024-02-16T12:35:40;1.00;;;0.50;;
19854;SDS011;10088;47.946;2.532;2024-02-16T12:38:05;0.50;;;0.40;;
19854;SDS011;10088;47.946;2.532;2024-02-16T12:40:30;0.50;;;0.40;;
19854;SDS011;10088;47.946;2.532;2024-02-16T12:42:56;0.63;;;0.37;;
19854;SDS011;10088;47.946;2.532;2024-02-16T12:45:21;1.27;;;0.57;;
19854;SDS011;10088;47.946;2.532;2024-02-16T12:47:46;0.50;;;0.50;;
19854;SDS011;10088;47.946;2.532;2024-02-16T12:50:12;0.80;;;0.70;;
19854;SDS011;10088;47.946;2.532;2024-02-16T12:52:37;1.13;;;0.73;;
19854;SDS011;10088;47.946;2.532;2024-02-16T12:55:04;0.77;;;0.60;;
19854;SDS011;10088;47.946;2.532;2024-02-16T12:57:30;0.90;;;0.63;;
19854;SDS011;10088;47.946;2.532;2024-02-16T12:59:55;1.83;;;0.93;;
19854;SDS011;10088;47.946;2.532;2024-02-16T13:02:20;0.80;;;0.57;;
19854;SDS011;10088;47.946;2.532;2024-02-16T13:04:45;0.60;;;0.60;;
19854;SDS011;10088;47.946;2.532;2024-02-16T13:07:11;0.80;;;0.67;;
19854;SDS011;10088;47.946;2.532;2024-02-16T13:09:36;2.13;;;0.80;;
19854;SDS011;10088;47.946;2.532;2024-02-16T13:12:01;1.37;;;0.90;;
19854;SDS011;10088;47.946;2.532;2024-02-16T13:14:28;0.97;;;0.97;;
19854;SDS011;10088;47.946;2.532;2024-02-16T13:16:53;1.20;;;1.10;;
19854;SDS011;10088;47.946;2.532;2024-02-16T13:19:18;1.33;;;1.10;;
19854;SDS011;10088;47.946;2.532;2024-02-16T13:21:44;1.67;;;1.40;;
19854;SDS011;10088;47.946;2.532;2024-02-16T13:24:09;2.07;;;1.60;;
19854;SDS011;10088;47.946;2.532;2024-02-16T13:26:34;2.57;;;1.57;;
19854;SDS011;10088;47.946;2.532;2024-02-16T13:29:00;2.30;;;1.50;;
19854;SDS011;10088;47.946;2.532;2024-02-16T13:31:25;5.53;;;1.60;;
19854;SDS011;10088;47.946;2.532;2024-02-16T13:33:52;2.53;;;1.70;;
19854;SDS011;10088;47.946;2.532;2024-02-16T13:36:18;2.40;;;1.60;;
19854;SDS011;10088;47.946;2.532;2024-02-16T13:38:43;2.47;;;1.43;;
19854;SDS011;10088;47.946;2.532;2024-02-16T13:41:08;2.40;;;1.30;;
19854;SDS011;10088;47.946;2.532;2024-02-16T13:43:34;2.73;;;1.43;;
19854;SDS011;10088;47.946;2.532;2024-02-16T13:45:59;3.57;;;1.43;;
19854;SDS011;10088;47.946;2.532;2024-02-16T13:48:25;1.40;;;1.23;;
19854;SDS011;10088;47.946;2.532;2024-02-16T13:50:50;1.47;;;1.30;;
19854;SDS011;10088;47.946;2.532;2024-02-16T13:53:16;3.93;;;1.70;;
19854;SDS011;10088;47.946;2.532;2024-02-16T13:55:42;2.57;;;1.67;;
19854;SDS011;10088;47.946;2.532;2024-02-16T13:58:07;3.27;;;1.93;;
19854;SDS011;10088;47.946;2.532;2024-02-16T14:00:33;2.43;;;1.50;;
19854;SDS011;10088;47.946;2.532;2024-02-16T14:02:58;1.83;;;1.53;;
19854;SDS011;10088;47.946;2.532;2024-02-16T14:05:24;2.20;;;1.43;;
19854;SDS011;10088;47.946;2.532;2024-02-16T14:07:50;2.20;;;1.40;;
19854;SDS011;10088;47.946;2.532;2024-02-16T14:10:16;1.77;;;1.60;;
19854;SDS011;10088;47.946;2.532;2024-02-16T14:12:41;2.50;;;1.40;;
19854;SDS011;10088;47.946;2.532;2024-02-16T14:15:06;1.50;;;1.30;;
19854;SDS011;10088;47.946;2.532;2024-02-16T14:17:32;2.57;;;1.50;;
19854;SDS011;10088;47.946;2.532;2024-02-16T14:19:57;1.87;;;1.17;;
19854;SDS011;10088;47.946;2.532;2024-02-16T14:22:23;4.50;;;1.50;;
19854;SDS011;10088;47.946;2.532;2024-02-16T14:24:49;2.90;;;1.50;;
19854;SDS011;10088;47.946;2.532;2024-02-16T14:27:14;1.30;;;1.20;;
19854;SDS011;10088;47.946;2.532;2024-02-16T14:29:39;3.60;;;1.43;;
19854;SDS011;10088;47.946;2.532;2024-02-16T14:32:05;3.77;;;1.33;;
19854;SDS011;10088;47.946;2.532;2024-02-16T14:34:31;4.60;;;1.50;;
19854;SDS011;10088;47.946;2.532;2024-02-16T14:36:56;2.23;;;1.20;;
19854;SDS011;10088;47.946;2.532;2024-02-16T14:39:21;2.93;;;1.20;;
19854;SDS011;10088;47.946;2.532;2024-02-16T14:41:46;4.70;;;1.47;;
19854;SDS011;10088;47.946;2.532;2024-02-16T14:44:12;6.40;;;1.73;;